Weather History for Hillsdale, MI

Change the Weather History Date:

Wednesday, January 9, 2013

  Actual Average Record
Temperature  
Mean Temperature 38 °F -  
Max Temperature 45 °F 27 °F 53 °F (1949)
Min Temperature 30 °F 10 °F -11 °F (1962)
Degree Days  
Heating Degree Days 28    
Moisture  
Dew Point 28 °F    
Average Humidity 67    
Maximum Humidity 86    
Minimum Humidity 40    
Precipitation  
Precipitation 0.00 in - - ()
Sea Level Pressure  
Sea Level Pressure 30.18 in    
Wind  
Wind Speed 12 mph (WSW)    
Max Wind Speed 25 mph    
Max Gust Speed 33 mph    
Visibility 9 miles    
Events Rain    
Averages and records for this station are not official NWS values.
T = Trace of Precipitation, MM = Missing Value Source: NWS Daily Summary

Daily Weather History Graph

Daily Weather History Graph

Search for Another Location

Airport:

Trip Planner

Search our weather history database for the weather conditions in past years. The results will help you decide how hot, cold, wet, or windy it might be!

Date:

Astronomy

Jan. 09, 2013 Rise Set
Actual Time 8:05 AM EST 5:25 PM EST
Civil Twilight 7:34 AM EST 5:57 PM EST
Nautical Twilight 6:59 AM EST 6:31 PM EST
Astronomical Twilight 6:26 AM EST 7:05 PM EST
Moon 5:44 AM EST (1/9) 3:26 PM EST (1/9)
Length of Visible Light 10h 22m
Length of Day
9h 20m
Waning Crescent, 6% of the Moon is Illuminated
Jan 9
Waning Crescent
Jan 11
New
Jan 18
First Quarter
Jan 26
Full
Feb 3
Last Quarter

Hourly Weather History & Observations

Time (EST) Temp. Windchill Dew Point Humidity Pressure Visibility Wind Dir Wind Speed Gust Speed Precip Events Conditions
12:15 AM 30.6 °F 23.8 °F 27.0 °F 86% 30.13 in 7.0 mi South 6.9 mph - N/A   Clear
12:34 AM 31.1 °F 24.5 °F 26.8 °F 84% 30.11 in 7.0 mi South 6.9 mph - N/A   Clear
12:55 AM 30.7 °F 23.3 °F 26.6 °F 85% 30.10 in 7.0 mi South 8.1 mph - N/A   Clear
1:14 AM 30.7 °F 24.9 °F 26.4 °F 84% 30.09 in 7.0 mi South 5.8 mph - N/A   Clear
1:35 AM 30.9 °F 25.2 °F 26.6 °F 84% 30.09 in 7.0 mi South 5.8 mph - N/A   Clear
1:55 AM 30.9 °F 26.2 °F 26.6 °F 84% 30.08 in 7.0 mi South 4.6 mph - N/A   Clear
2:14 AM 31.5 °F 24.9 °F 27.1 °F 84% 30.08 in 7.0 mi South 6.9 mph - N/A   Clear
2:34 AM 31.6 °F 23.7 °F 27.3 °F 84% 30.07 in 7.0 mi South 9.2 mph - N/A   Clear
2:55 AM 31.8 °F 23.9 °F 27.9 °F 85% 30.07 in 7.0 mi South 9.2 mph - N/A   Scattered Clouds
3:14 AM 32.2 °F 23.2 °F 28.0 °F 85% 30.07 in 7.0 mi South 11.5 mph - N/A   Mostly Cloudy
3:35 AM 32.2 °F 24.4 °F 28.4 °F 86% 30.07 in 7.0 mi SSW 9.2 mph - N/A   Mostly Cloudy
3:55 AM 33.1 °F 24.9 °F 28.9 °F 85% 30.05 in 7.0 mi South 10.4 mph - N/A   Overcast
4:15 AM 34.0 °F 26.6 °F 29.5 °F 84% 30.05 in 7.0 mi SSW 9.2 mph - N/A   Overcast
4:34 AM 35.1 °F 26.4 °F 30.0 °F 82% 30.05 in 10.0 mi SSW 12.7 mph 16.1 mph N/A   Overcast
4:55 AM 36.0 °F 27.5 °F 30.6 °F 81% 30.05 in 10.0 mi SW 12.7 mph 17.3 mph N/A   Overcast
5:15 AM 36.9 °F 29.1 °F 30.9 °F 79% 30.05 in 10.0 mi SSW 11.5 mph 16.1 mph N/A   Overcast
5:34 AM 36.7 °F 29.9 °F 31.5 °F 81% 30.05 in 7.0 mi SSW 9.2 mph - N/A Rain Light Rain
5:54 AM 36.7 °F 30.5 °F 32.0 °F 83% 30.04 in 7.0 mi SW 8.1 mph - N/A Rain Light Rain
6:14 AM 36.7 °F 29.9 °F 32.4 °F 84% 30.04 in 7.0 mi SSW 9.2 mph - N/A Rain Light Rain
6:35 AM 36.9 °F 30.7 °F 32.5 °F 84% 30.04 in 10.0 mi SSW 8.1 mph - N/A   Mostly Cloudy
6:54 AM 37.8 °F 30.7 °F 33.1 °F 83% 30.04 in 10.0 mi SW 10.4 mph - N/A   Scattered Clouds
7:15 AM 39.6 °F 33.0 °F 33.4 °F 79% 30.04 in 10.0 mi SW 10.4 mph - N/A   Clear
7:35 AM 40.8 °F 32.6 °F 33.3 °F 74% 30.06 in 10.0 mi WSW 16.1 mph 24.2 mph N/A   Clear
7:54 AM 41.2 °F 32.7 °F 33.1 °F 73% 30.07 in 10.0 mi WSW 17.3 mph 23.0 mph N/A   Clear
8:15 AM 40.6 °F 33.0 °F 32.7 °F 73% 30.08 in 10.0 mi WSW 13.8 mph 24.2 mph N/A   Clear
8:34 AM 40.3 °F 31.6 °F 32.7 °F 74% 30.10 in 10.0 mi WSW 17.3 mph 25.3 mph N/A   Clear
8:55 AM 40.3 °F 31.9 °F 32.7 °F 74% 30.11 in 10.0 mi WSW 16.1 mph 23.0 mph N/A   Clear
9:15 AM 40.3 °F 31.6 °F 32.5 °F 74% 30.12 in 10.0 mi WSW 17.3 mph 23.0 mph N/A   Clear
9:34 AM 40.3 °F 31.3 °F 32.4 °F 73% 30.13 in 10.0 mi West 18.4 mph 26.5 mph N/A   Clear
9:55 AM 40.5 °F 31.2 °F 32.2 °F 72% 30.14 in 10.0 mi WSW 19.6 mph 31.1 mph N/A   Clear
10:14 AM 40.5 °F 31.8 °F 32.0 °F 72% 30.14 in 10.0 mi WSW 17.3 mph 21.9 mph N/A   Clear
10:34 AM 40.5 °F 32.1 °F 31.5 °F 70% 30.16 in 10.0 mi West 16.1 mph 21.9 mph N/A   Clear
10:55 AM 40.8 °F 31.7 °F 30.7 °F 67% 30.16 in 10.0 mi West 19.6 mph 24.2 mph N/A   Clear
11:15 AM 41.2 °F 32.7 °F 30.4 °F 65% 30.16 in 10.0 mi West 17.3 mph 21.9 mph N/A   Clear
11:35 AM 41.4 °F 34.0 °F 30.0 °F 64% 30.16 in 10.0 mi West 13.8 mph - N/A   Clear
11:54 AM 41.7 °F 33.7 °F 29.1 °F 61% 30.16 in 10.0 mi West 16.1 mph 25.3 mph N/A   Clear
12:15 PM 42.3 °F 34.8 °F 29.3 °F 60% 30.16 in 10.0 mi West 15.0 mph 23.0 mph N/A   Clear
12:34 PM 42.4 °F 34.4 °F 28.9 °F 59% 30.16 in 10.0 mi West 17.3 mph 21.9 mph N/A   Clear
12:54 PM 42.6 °F 34.9 °F 29.1 °F 59% 30.15 in 10.0 mi West 16.1 mph 26.5 mph N/A   Clear
1:15 PM 42.8 °F 34.0 °F 29.7 °F 60% 30.16 in 10.0 mi West 20.7 mph 27.6 mph N/A   Clear
1:34 PM 43.0 °F 35.4 °F 29.7 °F 59% 30.16 in 10.0 mi West 16.1 mph 26.5 mph N/A   Clear
1:55 PM 43.5 °F 35.0 °F 29.5 °F 58% 30.16 in 10.0 mi West 20.7 mph 27.6 mph N/A   Clear
2:15 PM 43.5 °F 34.5 °F 28.4 °F 55% 30.18 in 10.0 mi West 23.0 mph 33.4 mph N/A   Clear
2:34 PM 44.1 °F 35.9 °F 28.2 °F 54% 30.19 in 10.0 mi West 19.6 mph 29.9 mph N/A   Clear
2:55 PM 44.2 °F 37.0 °F 28.6 °F 54% 30.19 in 10.0 mi West 16.1 mph 26.5 mph N/A   Clear
3:15 PM 44.8 °F 37.1 °F 27.1 °F 50% 30.19 in 10.0 mi West 18.4 mph 26.5 mph N/A   Clear
3:34 PM 45.3 °F 37.6 °F 25.5 °F 46% 30.20 in 10.0 mi West 19.6 mph 28.8 mph N/A   Clear
3:55 PM 45.3 °F 37.6 °F 23.5 °F 42% 30.21 in 10.0 mi West 19.6 mph 29.9 mph N/A   Clear
4:15 PM 45.0 °F 36.0 °F 22.5 °F 41% 30.23 in 10.0 mi West 25.3 mph 33.4 mph N/A   Clear
4:34 PM 44.8 °F 36.9 °F 21.7 °F 40% 30.24 in 10.0 mi West 19.6 mph 33.4 mph N/A   Clear
4:55 PM 44.2 °F 35.0 °F 22.1 °F 42% 30.25 in 10.0 mi West 25.3 mph 31.1 mph N/A   Clear
5:15 PM 43.5 °F 35.0 °F 22.3 °F 43% 30.26 in 10.0 mi West 20.7 mph 32.2 mph N/A   Clear
5:34 PM 43.0 °F 34.8 °F 22.6 °F 45% 30.27 in 10.0 mi West 18.4 mph 29.9 mph N/A   Clear
5:55 PM 42.4 °F 34.1 °F 22.3 °F 45% 30.28 in 10.0 mi West 18.4 mph 27.6 mph N/A   Clear
6:14 PM 41.7 °F 33.4 °F 22.1 °F 46% 30.29 in 10.0 mi West 17.3 mph 26.5 mph N/A   Clear
6:35 PM 41.4 °F 32.7 °F 22.3 °F 47% 30.31 in 10.0 mi West 18.4 mph 24.2 mph N/A   Clear
6:55 PM 40.6 °F 33.0 °F 22.3 °F 48% 30.33 in 10.0 mi WNW 13.8 mph 21.9 mph N/A   Clear
7:14 PM 40.3 °F 31.6 °F 21.9 °F 48% 30.34 in 10.0 mi WNW 17.3 mph 25.3 mph N/A   Clear
7:35 PM 39.9 °F 32.1 °F 21.9 °F 49% 30.33 in 10.0 mi WNW 13.8 mph 20.7 mph N/A   Clear
7:54 PM 38.7 °F 30.9 °F 22.5 °F 52% 30.34 in 10.0 mi NW 12.7 mph - N/A   Clear
8:35 PM 37.2 °F 28.7 °F 23.0 °F 56% 30.36 in 10.0 mi NW 13.8 mph - N/A   Clear
9:15 PM 36.7 °F 28.9 °F 23.5 °F 59% 30.37 in 10.0 mi WNW 11.5 mph - N/A   Clear
9:34 PM 36.0 °F 28.5 °F 23.9 °F 62% 30.37 in 10.0 mi NNW 10.4 mph - N/A   Clear
9:54 PM 36.0 °F 28.5 °F 24.4 °F 63% 30.37 in 10.0 mi NW 10.4 mph - N/A   Clear
10:14 PM 35.2 °F 28.1 °F 24.6 °F 65% 30.38 in 10.0 mi NW 9.2 mph - N/A   Clear
10:34 PM 34.3 °F 29.2 °F 24.6 °F 68% 30.39 in 10.0 mi WNW 5.8 mph - N/A   Clear
10:55 PM 34.3 °F 30.2 °F 24.8 °F 68% 30.41 in 10.0 mi West 4.6 mph - N/A   Clear
11:14 PM 33.6 °F - 25.0 °F 71% 30.42 in 10.0 mi Calm Calm - N/A   Clear
11:35 PM 34.0 °F - 24.6 °F 69% 30.43 in 10.0 mi Calm Calm - N/A   Clear
11:54 PM 30.6 °F 27.1 °F 24.4 °F 78% 30.44 in 10.0 mi SSW 3.5 mph - N/A   Clear